Terminal Aerodrome Forecast
Issued by NWS Duluth, MN

Home | Current Version | Previous Version | Text Only | Print | Product List | Glossary On
Versions: 1 2 3 4 5 6 7 8 9 10 11 12 13 14 15 16 17 18 19 20 21 22 23
000
FTUS43 KDLH 200100 AAB
TAFINL
TAF AMD
KINL 200110Z 2001/2024 27004KT P6SM VCSH OVC008
      TEMPO 2001/2003 1SM -RA BR OVC004
     FM200300 29007KT 5SM BR OVC008
      TEMPO 2003/2007 1SM -RA BR OVC004
     FM201200 30013G20KT P6SM OVC015
     FM201500 30014G22KT P6SM VCSH BKN025=

USA.gov is the U.S. government's official web portal to all federal, state and local government web resources and services.